createdAt,value
2022-07-27T00:02:06.222Z,99457.00
2022-07-27T00:04:33.582Z,99456.97
2022-07-27T00:07:01.749Z,99437.47
2022-07-27T00:09:29.045Z,99418.88
2022-07-27T00:11:56.248Z,99417.94
2022-07-27T00:14:23.505Z,99419.78
2022-07-27T00:16:50.753Z,99436.63
2022-07-27T00:19:17.995Z,99431.28
2022-07-27T00:21:46.297Z,99450.84
2022-07-27T00:24:13.915Z,99480.09
2022-07-27T00:26:41.157Z,99508.47
2022-07-27T00:29:09.096Z,99515.56
2022-07-27T00:31:37.158Z,99519.97
2022-07-27T00:34:05.468Z,99491.66
2022-07-27T00:36:32.737Z,99493.41
2022-07-27T00:39:00.142Z,99489.84
2022-07-27T00:41:27.430Z,99479.19
2022-07-27T00:44:00.182Z,99475.69
2022-07-27T00:46:29.146Z,99476.56
2022-07-27T00:48:56.529Z,99483.66
2022-07-27T00:51:24.666Z,99497.81
2022-07-27T00:53:54.166Z,99513.78
2022-07-27T00:56:22.390Z,99523.56
2022-07-27T00:58:52.554Z,99525.31
2022-07-27T01:01:20.611Z,99535.03
2022-07-27T01:03:48.382Z,99567.88
2022-07-27T01:06:26.761Z,99561.66
2022-07-27T01:09:17.645Z,99558.13
2022-07-27T01:11:49.221Z,99543.91
2022-07-27T01:14:17.749Z,99531.50
2022-07-27T01:16:45.175Z,99527.94
2022-07-27T01:19:14.972Z,99521.69
2022-07-27T01:21:42.627Z,99512.78
2022-07-27T01:24:10.954Z,99511.88
2022-07-27T01:26:39.723Z,99503.91
2022-07-27T01:29:07.282Z,99507.41
2022-07-27T01:31:34.774Z,99509.22
2022-07-27T01:34:04.276Z,99500.34
2022-07-27T01:36:31.672Z,99494.97
2022-07-27T01:38:59.107Z,99488.72
2022-07-27T01:41:26.559Z,99488.69
2022-07-27T01:43:53.902Z,99481.59
2022-07-27T01:46:21.218Z,99485.13
2022-07-27T01:48:48.827Z,99481.59
2022-07-27T01:51:16.110Z,99478.00
2022-07-27T01:53:43.283Z,99471.78
2022-07-27T01:56:14.201Z,99482.44
2022-07-27T01:58:42.832Z,99471.81
2022-07-27T02:01:10.556Z,99474.44
2022-07-27T02:03:37.930Z,99472.63
2022-07-27T02:06:06.145Z,99478.84
2022-07-27T02:08:34.291Z,99482.41
2022-07-27T02:11:21.225Z,99471.78
2022-07-27T02:13:50.194Z,99472.66
2022-07-27T02:16:19.191Z,99483.34
2022-07-27T02:18:48.597Z,99487.78
2022-07-27T02:21:16.464Z,99496.66
2022-07-27T02:23:45.412Z,99514.44
2022-07-27T02:26:12.991Z,99525.97
2022-07-27T02:28:40.295Z,99530.41
2022-07-27T02:31:07.498Z,99541.09
2022-07-27T02:33:34.845Z,99540.16
2022-07-27T02:36:02.941Z,99548.19
2022-07-27T02:38:30.294Z,99552.56
2022-07-27T02:40:57.684Z,99567.69
2022-07-27T02:43:24.933Z,99559.72
2022-07-27T02:45:52.498Z,99562.38
2022-07-27T02:48:19.937Z,99569.50
2022-07-27T02:50:47.216Z,99567.72
2022-07-27T02:53:14.489Z,99569.47
2022-07-27T02:55:41.842Z,99570.38
2022-07-27T02:58:09.124Z,99563.25
2022-07-27T03:00:36.430Z,99559.75
2022-07-27T03:03:03.933Z,99560.63
2022-07-27T03:05:31.339Z,99557.94
2022-07-27T03:07:58.592Z,99559.75
2022-07-27T03:10:25.886Z,99557.97
2022-07-27T03:12:53.206Z,99558.91
2022-07-27T03:15:20.448Z,99562.44
2022-07-27T03:17:47.719Z,99559.81
2022-07-27T03:20:15.072Z,99565.16
2022-07-27T03:22:42.959Z,99565.19
2022-07-27T03:25:10.711Z,99559.84
2022-07-27T03:27:38.578Z,99568.75
2022-07-27T03:30:07.850Z,99568.75
2022-07-27T03:32:35.102Z,99565.22
2022-07-27T03:35:02.713Z,99570.53
2022-07-27T03:37:30.044Z,99575.84
2022-07-27T03:39:57.382Z,99557.22
2022-07-27T03:42:24.726Z,99556.31
2022-07-27T03:44:52.073Z,99545.69
2022-07-27T03:47:19.324Z,99555.47
2022-07-27T03:49:47.694Z,99553.69
2022-07-27T03:52:17.885Z,99573.22
2022-07-27T03:54:46.934Z,99583.81
2022-07-27T03:57:15.087Z,99590.03
2022-07-27T03:59:42.426Z,99591.78
2022-07-27T04:02:09.981Z,99582.91
2022-07-27T04:04:37.385Z,99579.41
2022-07-27T04:07:04.631Z,99566.13
2022-07-27T04:09:32.089Z,99563.44
2022-07-27T04:11:59.347Z,99566.09
2022-07-27T04:14:26.832Z,99571.41
2022-07-27T04:16:54.166Z,99574.06
2022-07-27T04:19:21.517Z,99564.28
2022-07-27T04:21:49.015Z,99559.88
2022-07-27T04:24:16.363Z,99558.13
2022-07-27T04:26:43.811Z,99552.78
2022-07-27T04:29:11.383Z,99543.03
2022-07-27T04:31:39.113Z,99542.16
2022-07-27T04:34:06.333Z,99553.66
2022-07-27T04:36:33.565Z,99551.00
2022-07-27T04:39:00.935Z,99557.22
2022-07-27T04:41:30.328Z,99543.94
2022-07-27T04:43:59.151Z,99546.59
2022-07-27T04:46:29.686Z,99543.94
2022-07-27T04:48:57.896Z,99541.25
2022-07-27T04:51:25.389Z,99551.03
2022-07-27T04:53:58.256Z,99543.94
2022-07-27T04:56:27.416Z,99551.91
2022-07-27T04:58:56.116Z,99546.59
2022-07-27T05:01:23.638Z,99538.63
2022-07-27T05:03:51.903Z,99534.19
2022-07-27T05:06:19.718Z,99532.38
2022-07-27T05:08:47.017Z,99535.03
2022-07-27T05:11:15.431Z,99531.50
2022-07-27T05:13:42.717Z,99536.81
2022-07-27T05:16:10.913Z,99533.22
2022-07-27T05:18:39.254Z,99536.75
2022-07-27T05:21:07.750Z,99538.53
2022-07-27T05:23:35.406Z,99535.81
2022-07-27T05:26:03.094Z,99534.88
2022-07-27T05:28:30.626Z,99535.75
2022-07-27T05:30:57.857Z,99545.50
2022-07-27T05:33:25.519Z,99533.91
2022-07-27T05:35:53.115Z,99542.78
2022-07-27T05:38:20.391Z,99543.66
2022-07-27T05:40:47.830Z,99548.94
2022-07-27T05:43:15.344Z,99553.41
2022-07-27T05:45:42.714Z,99545.44
2022-07-27T05:48:10.013Z,99543.69
2022-07-27T05:50:37.650Z,99548.13
2022-07-27T05:53:05.034Z,99549.06
2022-07-27T05:55:33.445Z,99562.38
2022-07-27T05:58:00.697Z,99560.59
2022-07-27T06:00:27.936Z,99564.13
2022-07-27T06:02:55.221Z,99562.38
2022-07-27T06:05:22.562Z,99558.81
2022-07-27T06:07:58.945Z,99558.69
2022-07-27T06:10:33.360Z,99552.47
2022-07-27T06:13:04.666Z,99552.41
2022-07-27T06:15:32.372Z,99548.78
2022-07-27T06:18:00.410Z,99553.94
2022-07-27T06:20:28.193Z,99548.50
2022-07-27T06:23:07.797Z,99539.50
2022-07-27T06:25:36.243Z,99544.66
2022-07-27T06:28:05.904Z,99541.06
2022-07-27T06:30:33.561Z,99535.72
2022-07-27T06:33:04.987Z,99532.41
2022-07-27T06:35:34.154Z,99526.25
2022-07-27T06:38:02.816Z,99524.47
2022-07-27T06:40:30.350Z,99524.34
2022-07-27T06:42:58.815Z,99533.00
2022-07-27T06:45:26.937Z,99536.25
2022-07-27T06:47:54.226Z,99530.59
2022-07-27T06:50:22.162Z,99532.84
2022-07-27T06:52:49.571Z,99534.47
2022-07-27T06:55:17.623Z,99533.28
2022-07-27T06:57:46.234Z,99524.50
2022-07-27T07:00:15.009Z,99515.41
2022-07-27T07:02:59.205Z,99521.63
2022-07-27T07:05:27.086Z,99525.91
2022-07-27T07:07:54.414Z,99533.66
2022-07-27T07:10:24.056Z,99530.66
2022-07-27T07:12:56.061Z,99533.56
2022-07-27T07:15:26.661Z,99537.75
2022-07-27T07:17:54.442Z,99541.94
2022-07-27T07:20:22.209Z,99539.56
2022-07-27T07:22:49.702Z,99535.91
2022-07-27T07:25:17.914Z,99530.94
2022-07-27T07:27:45.211Z,99536.16
2022-07-27T07:30:13.303Z,99540.97
2022-07-27T07:32:40.662Z,99540.66
2022-07-27T07:35:09.110Z,99539.53
2022-07-27T07:37:36.423Z,99537.72
2022-07-27T07:40:25.296Z,99537.53
2022-07-27T07:43:02.464Z,99534.50
2022-07-27T07:45:34.726Z,99535.19
2022-07-27T07:48:02.077Z,99535.34
2022-07-27T07:50:29.497Z,99526.56
2022-07-27T07:52:56.840Z,99525.88
2022-07-27T07:55:28.817Z,99524.22
2022-07-27T07:57:57.712Z,99523.19
2022-07-27T08:00:25.195Z,99512.69
2022-07-27T08:02:55.902Z,99520.09
2022-07-27T08:05:24.224Z,99504.47
2022-07-27T08:07:52.857Z,99508.78
2022-07-27T08:10:22.519Z,99502.91
2022-07-27T08:12:56.330Z,99501.03
2022-07-27T08:15:34.897Z,99508.38
2022-07-27T08:18:05.687Z,99504.28
2022-07-27T08:20:33.600Z,99505.53
2022-07-27T08:23:00.917Z,99507.25
2022-07-27T08:25:28.341Z,99509.88
2022-07-27T08:27:56.210Z,99512.53
2022-07-27T08:30:24.711Z,99516.78
2022-07-27T08:33:01.186Z,99515.94
2022-07-27T08:35:31.939Z,99514.75
2022-07-27T08:38:01.981Z,99530.34
2022-07-27T08:40:40.136Z,99517.94
2022-07-27T08:43:09.830Z,99522.88
2022-07-27T08:45:38.475Z,99513.75
2022-07-27T08:48:06.590Z,99512.28
2022-07-27T08:50:35.262Z,99516.78
2022-07-27T08:53:07.570Z,99504.19
2022-07-27T08:55:39.599Z,99509.47
2022-07-27T08:58:08.972Z,99509.41
2022-07-27T09:00:42.468Z,99509.84
2022-07-27T09:03:19.609Z,99513.63
2022-07-27T09:05:55.668Z,99520.56
2022-07-27T09:08:30.515Z,99510.38
2022-07-27T09:11:00.222Z,99500.06
2022-07-27T09:13:34.125Z,99507.72
2022-07-27T09:16:22.177Z,99515.88
2022-07-27T09:18:58.801Z,99511.13
2022-07-27T09:21:26.278Z,99505.69
2022-07-27T09:24:23.250Z,99511.84
2022-07-27T09:27:04.210Z,99505.88
2022-07-27T09:29:36.630Z,99504.28
2022-07-27T09:32:15.821Z,99502.47
2022-07-27T09:34:43.867Z,99510.19
2022-07-27T09:37:12.247Z,99507.66
2022-07-27T09:39:39.559Z,99501.25
2022-07-27T09:43:03.554Z,99499.09
2022-07-27T09:45:03.856Z,99499.66
2022-07-27T09:47:31.440Z,99501.06
2022-07-27T09:50:20.385Z,99502.88
2022-07-27T09:52:48.857Z,99498.84
2022-07-27T09:55:21.329Z,99495.53
2022-07-27T09:57:54.294Z,99490.84
2022-07-27T10:00:24.431Z,99495.81
2022-07-27T10:02:53.624Z,99495.41
2022-07-27T10:05:22.880Z,99498.66
2022-07-27T10:07:54.019Z,99490.63
2022-07-27T10:10:23.554Z,99501.00
2022-07-27T10:12:55.001Z,99500.03
2022-07-27T10:15:24.980Z,99496.38
2022-07-27T10:18:08.910Z,99492.78
2022-07-27T10:20:39.879Z,99490.94
2022-07-27T10:23:07.723Z,99483.13
2022-07-27T10:25:38.263Z,99490.78
2022-07-27T10:28:19.270Z,99492.91
2022-07-27T10:30:52.177Z,99492.44
2022-07-27T10:33:50.357Z,99485.75
2022-07-27T10:36:24.450Z,99481.28
2022-07-27T10:39:00.276Z,99482.69
2022-07-27T10:41:43.745Z,99475.72
2022-07-27T10:44:23.768Z,99475.31
2022-07-27T10:47:04.044Z,99470.22
2022-07-27T10:49:40.523Z,99467.53
2022-07-27T10:52:50.896Z,99469.44
2022-07-27T10:55:33.951Z,99463.38
2022-07-27T10:58:10.117Z,99463.06
2022-07-27T11:00:53.995Z,99467.13
2022-07-27T11:03:35.187Z,99476.13
2022-07-27T11:06:32.932Z,99458.72
2022-07-27T11:09:53.206Z,99458.84
2022-07-27T11:11:53.646Z,99454.63
2022-07-27T11:14:29.447Z,99460.47
2022-07-27T11:17:48.294Z,99447.25
2022-07-27T11:20:00.669Z,99452.81
2022-07-27T11:23:09.108Z,99455.22
2022-07-27T11:25:27.278Z,99454.19
2022-07-27T11:27:54.516Z,99444.69
2022-07-27T11:30:28.623Z,99444.56
2022-07-27T11:32:56.736Z,99445.34
2022-07-27T11:35:24.962Z,99439.22
2022-07-27T11:38:07.647Z,99434.16
2022-07-27T11:40:59.781Z,99429.66
2022-07-27T11:43:45.582Z,99422.41
2022-07-27T11:46:27.478Z,99430.06
2022-07-27T11:49:10.164Z,99435.72
2022-07-27T11:51:43.733Z,99425.50
2022-07-27T11:54:21.698Z,99427.94
2022-07-27T11:57:03.318Z,99415.59
2022-07-27T11:59:34.842Z,99424.19
2022-07-27T12:02:13.459Z,99416.66
2022-07-27T12:05:00.545Z,99421.97
2022-07-27T12:07:33.684Z,99416.38
2022-07-27T12:10:06.790Z,99419.03
2022-07-27T12:12:37.409Z,99418.56
2022-07-27T12:15:45.807Z,99402.50
2022-07-27T12:18:08.005Z,99400.41
2022-07-27T12:20:37.341Z,99397.25
2022-07-27T12:23:08.633Z,99395.94
2022-07-27T12:25:37.391Z,99390.97
2022-07-27T12:28:17.872Z,99405.53
2022-07-27T12:30:51.144Z,99395.03
2022-07-27T12:33:37.177Z,99391.94
2022-07-27T12:36:08.306Z,99388.88
2022-07-27T12:38:48.669Z,99385.97
2022-07-27T12:41:30.565Z,99382.53
2022-07-27T12:44:12.822Z,99379.88
2022-07-27T12:47:28.207Z,99383.84
2022-07-27T12:50:16.564Z,99382.88
2022-07-27T12:52:51.696Z,99385.28
2022-07-27T12:55:22.954Z,99377.59
2022-07-27T12:57:56.135Z,99378.63
2022-07-27T13:00:33.735Z,99379.88
2022-07-27T13:03:03.293Z,99381.53
2022-07-27T13:05:32.765Z,99361.47
2022-07-27T13:08:01.962Z,99363.44
2022-07-27T13:10:29.570Z,99365.06
2022-07-27T13:12:57.736Z,99356.38
2022-07-27T13:15:25.770Z,99355.50
2022-07-27T13:17:53.472Z,99362.56
2022-07-27T13:20:21.218Z,99358.56
2022-07-27T13:22:48.845Z,99360.91
2022-07-27T13:25:17.851Z,99362.56
2022-07-27T13:27:49.550Z,99361.00
2022-07-27T13:30:19.030Z,99348.53
2022-07-27T13:32:46.992Z,99361.25
2022-07-27T13:35:16.853Z,99347.03
2022-07-27T13:37:45.470Z,99346.78
2022-07-27T13:40:14.796Z,99348.59
2022-07-27T13:42:42.063Z,99343.13
2022-07-27T13:45:11.886Z,99346.50
2022-07-27T13:47:41.269Z,99349.88
2022-07-27T13:50:18.197Z,99333.53
2022-07-27T13:52:48.786Z,99336.41
2022-07-27T13:55:17.716Z,99330.38
2022-07-27T13:57:47.047Z,99331.91
2022-07-27T14:00:17.022Z,99322.53
2022-07-27T14:02:45.530Z,99316.88
2022-07-27T14:05:31.677Z,99316.47
2022-07-27T14:07:59.984Z,99304.66
2022-07-27T14:13:26.427Z,99302.91
2022-07-27T14:15:55.477Z,99305.91
2022-07-27T14:18:27.503Z,99293.63
2022-07-27T14:20:58.597Z,99289.28
2022-07-27T14:23:27.850Z,99290.25
2022-07-27T14:25:57.964Z,99283.88
2022-07-27T14:28:27.396Z,99274.59
2022-07-27T14:30:55.817Z,99274.06
2022-07-27T14:33:25.127Z,99271.97
2022-07-27T14:35:52.777Z,99263.66
2022-07-27T14:38:27.869Z,99268.59
2022-07-27T14:41:00.778Z,99258.78
2022-07-27T14:43:29.654Z,99263.16
2022-07-27T14:45:59.173Z,99256.09
2022-07-27T14:48:42.548Z,99257.09
2022-07-27T14:51:14.046Z,99253.91
2022-07-27T14:53:41.359Z,99261.00
2022-07-27T14:56:08.565Z,99248.97
2022-07-27T14:58:36.221Z,99247.66
2022-07-27T15:01:03.811Z,99244.41
2022-07-27T15:03:31.206Z,99236.97
2022-07-27T15:05:58.444Z,99239.88
2022-07-27T15:08:25.743Z,99236.22
2022-07-27T15:10:53.102Z,99246.44
2022-07-27T15:13:20.430Z,99241.63
2022-07-27T15:15:48.875Z,99236.66
2022-07-27T15:18:19.269Z,99234.53
2022-07-27T15:20:47.687Z,99233.50
2022-07-27T15:23:16.268Z,99227.94
2022-07-27T15:25:43.644Z,99231.69
2022-07-27T15:28:11.925Z,99233.91
2022-07-27T15:30:39.708Z,99226.72
2022-07-27T15:33:07.561Z,99225.97
2022-07-27T15:35:35.155Z,99228.25
2022-07-27T15:38:02.475Z,99225.66
2022-07-27T15:40:38.737Z,99229.97
2022-07-27T15:43:14.053Z,99226.31
2022-07-27T15:45:48.097Z,99226.47
2022-07-27T15:48:20.233Z,99218.56
2022-07-27T15:50:51.708Z,99219.44
2022-07-27T15:53:21.638Z,99222.31
2022-07-27T15:55:49.631Z,99215.44
2022-07-27T15:58:19.946Z,99216.78
2022-07-27T16:00:53.017Z,99221.72
2022-07-27T16:03:24.292Z,99214.94
2022-07-27T16:05:54.046Z,99220.13
2022-07-27T16:08:21.475Z,99212.09
2022-07-27T16:10:49.418Z,99201.47
2022-07-27T16:13:17.488Z,99198.66
2022-07-27T16:16:03.984Z,99195.13
2022-07-27T16:18:35.318Z,99197.22
2022-07-27T16:21:06.293Z,99193.88
2022-07-27T16:23:33.704Z,99196.81
2022-07-27T16:26:05.682Z,99195.22
2022-07-27T16:28:41.020Z,99192.47
2022-07-27T16:31:11.414Z,99190.91
2022-07-27T16:33:40.189Z,99191.09
2022-07-27T16:36:08.815Z,99181.78
2022-07-27T16:38:39.317Z,99180.38
2022-07-27T16:41:22.869Z,99184.00
2022-07-27T16:43:50.652Z,99186.50
2022-07-27T16:46:18.078Z,99186.09
2022-07-27T16:48:46.334Z,99178.88
2022-07-27T16:51:15.984Z,99189.63
2022-07-27T16:53:47.853Z,99179.47
2022-07-27T16:56:15.579Z,99186.03
2022-07-27T16:58:44.522Z,99189.09
2022-07-27T17:01:21.683Z,99192.78
2022-07-27T17:03:56.647Z,99193.38
2022-07-27T17:06:26.179Z,99192.50
2022-07-27T17:08:54.436Z,99201.41
2022-07-27T17:11:22.430Z,99199.25
2022-07-27T17:13:51.257Z,99203.13
2022-07-27T17:16:27.501Z,99203.09
2022-07-27T17:18:55.169Z,99211.00
2022-07-27T17:21:22.597Z,99210.16
2022-07-27T17:23:49.992Z,99209.09
2022-07-27T17:26:17.471Z,99209.38
2022-07-27T17:28:44.777Z,99202.41
2022-07-27T17:31:12.968Z,99207.28
2022-07-27T17:33:41.558Z,99202.00
2022-07-27T17:36:15.033Z,99201.09
2022-07-27T17:38:45.249Z,99206.47
2022-07-27T17:41:18.124Z,99208.47
2022-07-27T17:43:49.456Z,99209.06
2022-07-27T17:46:17.829Z,99211.41
2022-07-27T17:48:45.249Z,99207.47
2022-07-27T17:51:12.682Z,99212.47
2022-07-27T17:53:40.085Z,99206.13
2022-07-27T17:56:08.444Z,99217.75
2022-07-27T17:58:39.518Z,99215.84
2022-07-27T18:01:08.275Z,99211.22
2022-07-27T18:03:35.655Z,99219.19
2022-07-27T18:06:04.231Z,99218.28
2022-07-27T18:08:31.725Z,99219.81
2022-07-27T18:10:59.585Z,99222.00
2022-07-27T18:13:38.995Z,99229.06
2022-07-27T18:16:12.097Z,99238.34
2022-07-27T18:18:41.864Z,99235.25
2022-07-27T18:21:10.780Z,99244.66
2022-07-27T18:23:39.747Z,99241.38
2022-07-27T18:26:07.389Z,99254.38
2022-07-27T18:28:39.467Z,99251.03
2022-07-27T18:31:09.463Z,99263.28
2022-07-27T18:33:37.826Z,99265.78
2022-07-27T18:36:06.257Z,99261.97
2022-07-27T18:38:33.758Z,99266.53
2022-07-27T18:41:01.070Z,99275.00
2022-07-27T18:43:28.422Z,99279.06
2022-07-27T18:45:56.910Z,99288.34
2022-07-27T18:48:25.762Z,99282.63
2022-07-27T18:50:53.552Z,99290.09
2022-07-27T18:53:20.836Z,99276.19
2022-07-27T18:55:52.754Z,99282.91
2022-07-27T18:58:22.892Z,99294.16
2022-07-27T19:00:50.613Z,99289.63
2022-07-27T19:03:19.604Z,99299.88
2022-07-27T19:05:49.389Z,99295.84
2022-07-27T19:08:19.793Z,99297.28
2022-07-27T19:10:47.420Z,99300.13
2022-07-27T19:13:14.764Z,99302.19
2022-07-27T19:15:42.494Z,99303.50
2022-07-27T19:18:09.851Z,99316.06
2022-07-27T19:20:37.650Z,99311.84
2022-07-27T19:23:08.180Z,99316.47
2022-07-27T19:25:35.598Z,99321.97
2022-07-27T19:28:04.450Z,99323.16
2022-07-27T19:30:31.994Z,99334.00
2022-07-27T19:32:59.782Z,99341.13
2022-07-27T19:35:27.211Z,99344.84
2022-07-27T19:37:54.423Z,99350.38
2022-07-27T19:43:11.601Z,99360.59
2022-07-27T19:45:39.095Z,99365.03
2022-07-27T19:48:08.170Z,99363.47
2022-07-27T19:50:35.637Z,99363.75
2022-07-27T19:53:04.107Z,99373.94
2022-07-27T19:55:31.399Z,99378.63
2022-07-27T19:57:59.505Z,99381.47
2022-07-27T20:00:26.964Z,99389.53
2022-07-27T20:02:54.376Z,99397.63
2022-07-27T20:05:21.816Z,99394.16
2022-07-27T20:07:49.123Z,99396.06
2022-07-27T20:10:16.704Z,99405.31
2022-07-27T20:12:43.973Z,99402.88
2022-07-27T20:15:11.545Z,99400.31
2022-07-27T20:17:40.759Z,99410.25
2022-07-27T20:20:10.940Z,99408.56
2022-07-27T20:22:41.321Z,99413.16
2022-07-27T20:25:14.910Z,99421.31
2022-07-27T20:27:42.801Z,99421.41
2022-07-27T20:30:14.510Z,99421.44
2022-07-27T20:32:45.804Z,99423.19
2022-07-27T20:35:13.654Z,99425.19
2022-07-27T20:37:42.202Z,99432.38
2022-07-27T20:40:13.125Z,99442.31
2022-07-27T20:42:42.992Z,99443.22
2022-07-27T20:45:14.274Z,99437.84
2022-07-27T20:47:43.095Z,99449.50
2022-07-27T20:50:14.794Z,99450.41
2022-07-27T20:52:43.350Z,99450.53
2022-07-27T20:55:11.885Z,99455.06
2022-07-27T20:57:39.293Z,99457.66
2022-07-27T21:00:08.685Z,99460.28
2022-07-27T21:02:36.443Z,99463.78
2022-07-27T21:05:06.090Z,99465.47
2022-07-27T21:07:34.179Z,99466.41
2022-07-27T21:10:01.499Z,99464.66
2022-07-27T21:12:28.754Z,99468.25
2022-07-27T21:14:56.110Z,99471.75
2022-07-27T21:17:23.656Z,99470.81
2022-07-27T21:19:51.062Z,99477.22
2022-07-27T21:22:20.119Z,99478.22
2022-07-27T21:24:47.498Z,99488.16
2022-07-27T21:27:20.921Z,99488.13
2022-07-27T21:29:49.166Z,99499.63
2022-07-27T21:32:17.775Z,99499.56
2022-07-27T21:34:45.529Z,99501.47
2022-07-27T21:37:12.912Z,99499.78
2022-07-27T21:39:40.258Z,99505.13
2022-07-27T21:42:07.662Z,99501.53
2022-07-27T21:44:35.022Z,99507.94
2022-07-27T21:47:03.589Z,99505.16
2022-07-27T21:49:34.569Z,99513.41
2022-07-27T21:52:02.359Z,99513.63
2022-07-27T21:54:29.668Z,99509.25
2022-07-27T21:56:56.947Z,99510.38
2022-07-27T21:59:24.299Z,99512.22
2022-07-27T22:01:51.642Z,99512.31
2022-07-27T22:04:19.055Z,99517.66
2022-07-27T22:06:46.711Z,99516.81
2022-07-27T22:09:14.280Z,99522.28
2022-07-27T22:11:42.478Z,99530.41
2022-07-27T22:14:09.833Z,99533.91
2022-07-27T22:16:37.153Z,99526.78
2022-07-27T22:19:04.780Z,99539.19
2022-07-27T22:21:32.095Z,99539.16
2022-07-27T22:23:59.365Z,99538.28
2022-07-27T22:26:26.801Z,99542.78
2022-07-27T22:28:54.231Z,99542.88
2022-07-27T22:31:23.416Z,99543.81
2022-07-27T22:33:51.313Z,99537.50
2022-07-27T22:36:18.823Z,99537.63
2022-07-27T22:38:46.346Z,99539.44
2022-07-27T22:41:13.884Z,99550.16
2022-07-27T22:43:41.537Z,99546.78
2022-07-27T22:46:10.028Z,99548.66
2022-07-27T22:48:37.912Z,99546.06
2022-07-27T22:51:05.270Z,99555.81
2022-07-27T22:53:32.615Z,99555.78
2022-07-27T22:56:00.390Z,99554.94
2022-07-27T22:58:28.016Z,99548.72
2022-07-27T23:00:59.360Z,99557.66
2022-07-27T23:03:26.933Z,99556.91
2022-07-27T23:05:54.618Z,99556.06
2022-07-27T23:08:21.891Z,99551.53
2022-07-27T23:10:49.622Z,99556.06
2022-07-27T23:13:22.848Z,99554.19
2022-07-27T23:15:50.571Z,99551.34
2022-07-27T23:18:18.302Z,99552.16
2022-07-27T23:20:46.143Z,99548.59
2022-07-27T23:23:15.828Z,99549.69
2022-07-27T23:25:47.008Z,99552.66
2022-07-27T23:28:15.476Z,99552.88
2022-07-27T23:30:43.033Z,99552.94
2022-07-27T23:33:10.467Z,99555.72
2022-07-27T23:35:37.850Z,99550.47
2022-07-27T23:38:05.237Z,99556.78
2022-07-27T23:40:32.529Z,99552.53
2022-07-27T23:42:59.900Z,99563.28
2022-07-27T23:45:27.983Z,99574.03
2022-07-27T23:47:55.585Z,99565.16
2022-07-27T23:50:23.242Z,99561.56
2022-07-27T23:52:50.668Z,99565.97
2022-07-27T23:55:18.103Z,99564.31
2022-07-27T23:57:45.325Z,99568.00
